sensor_id;sensor_type;location;lat;lon;timestamp;P1;durP1;ratioP1;P2;durP2;ratioP2
6372;SDS011;3219;51.362;7.074;2022-12-11T00:00:26;70.15;;;36.35;;
6372;SDS011;3219;51.362;7.074;2022-12-11T00:02:54;71.38;;;37.28;;
6372;SDS011;3219;51.362;7.074;2022-12-11T00:05:24;76.35;;;39.90;;
6372;SDS011;3219;51.362;7.074;2022-12-11T00:07:52;80.55;;;40.05;;
6372;SDS011;3219;51.362;7.074;2022-12-11T00:10:20;74.00;;;39.58;;
6372;SDS011;3219;51.362;7.074;2022-12-11T00:12:48;70.18;;;37.28;;
6372;SDS011;3219;51.362;7.074;2022-12-11T00:15:16;79.38;;;39.53;;
6372;SDS011;3219;51.362;7.074;2022-12-11T00:17:44;77.78;;;40.35;;
6372;SDS011;3219;51.362;7.074;2022-12-11T00:20:12;76.93;;;38.30;;
6372;SDS011;3219;51.362;7.074;2022-12-11T00:22:41;72.28;;;36.75;;
6372;SDS011;3219;51.362;7.074;2022-12-11T00:25:09;74.25;;;38.38;;
6372;SDS011;3219;51.362;7.074;2022-12-11T00:27:37;76.20;;;39.30;;
6372;SDS011;3219;51.362;7.074;2022-12-11T00:30:06;75.65;;;38.00;;
6372;SDS011;3219;51.362;7.074;2022-12-11T00:32:34;85.65;;;41.38;;
6372;SDS011;3219;51.362;7.074;2022-12-11T00:35:02;83.53;;;41.28;;
6372;SDS011;3219;51.362;7.074;2022-12-11T00:37:30;78.72;;;38.75;;
6372;SDS011;3219;51.362;7.074;2022-12-11T00:40:00;84.10;;;41.42;;
6372;SDS011;3219;51.362;7.074;2022-12-11T00:42:28;91.00;;;41.92;;
6372;SDS011;3219;51.362;7.074;2022-12-11T00:44:56;80.57;;;40.30;;
6372;SDS011;3219;51.362;7.074;2022-12-11T00:47:24;80.88;;;42.00;;
6372;SDS011;3219;51.362;7.074;2022-12-11T00:49:52;84.32;;;41.05;;
6372;SDS011;3219;51.362;7.074;2022-12-11T00:52:20;86.00;;;42.92;;
6372;SDS011;3219;51.362;7.074;2022-12-11T00:54:48;83.10;;;40.53;;
6372;SDS011;3219;51.362;7.074;2022-12-11T00:57:18;90.47;;;42.25;;
6372;SDS011;3219;51.362;7.074;2022-12-11T00:59:46;86.75;;;41.53;;
6372;SDS011;3219;51.362;7.074;2022-12-11T01:02:14;82.35;;;41.08;;
6372;SDS011;3219;51.362;7.074;2022-12-11T01:04:42;87.35;;;42.13;;
6372;SDS011;3219;51.362;7.074;2022-12-11T01:07:10;87.93;;;44.50;;
6372;SDS011;3219;51.362;7.074;2022-12-11T01:09:38;94.50;;;41.70;;
6372;SDS011;3219;51.362;7.074;2022-12-11T01:12:25;86.20;;;42.80;;
6372;SDS011;3219;51.362;7.074;2022-12-11T01:14:53;88.10;;;42.97;;
6372;SDS011;3219;51.362;7.074;2022-12-11T01:17:21;91.55;;;43.30;;
6372;SDS011;3219;51.362;7.074;2022-12-11T01:19:49;92.63;;;43.63;;
6372;SDS011;3219;51.362;7.074;2022-12-11T01:22:20;89.30;;;44.40;;
6372;SDS011;3219;51.362;7.074;2022-12-11T01:24:48;95.80;;;46.08;;
6372;SDS011;3219;51.362;7.074;2022-12-11T01:27:16;100.75;;;49.30;;
6372;SDS011;3219;51.362;7.074;2022-12-11T01:29:45;88.28;;;44.13;;
6372;SDS011;3219;51.362;7.074;2022-12-11T01:32:13;87.00;;;43.30;;
6372;SDS011;3219;51.362;7.074;2022-12-11T01:34:41;97.75;;;46.10;;
6372;SDS011;3219;51.362;7.074;2022-12-11T01:37:09;92.07;;;46.75;;
6372;SDS011;3219;51.362;7.074;2022-12-11T01:39:37;90.20;;;45.05;;
6372;SDS011;3219;51.362;7.074;2022-12-11T01:42:05;91.13;;;43.85;;
6372;SDS011;3219;51.362;7.074;2022-12-11T01:47:22;95.47;;;46.85;;
6372;SDS011;3219;51.362;7.074;2022-12-11T01:49:50;91.95;;;45.50;;
6372;SDS011;3219;51.362;7.074;2022-12-11T01:52:18;92.18;;;46.17;;
6372;SDS011;3219;51.362;7.074;2022-12-11T01:54:48;96.80;;;47.63;;
6372;SDS011;3219;51.362;7.074;2022-12-11T01:57:16;86.22;;;44.85;;
6372;SDS011;3219;51.362;7.074;2022-12-11T01:59:45;90.28;;;45.80;;
6372;SDS011;3219;51.362;7.074;2022-12-11T02:02:14;98.95;;;46.45;;
6372;SDS011;3219;51.362;7.074;2022-12-11T02:04:44;91.82;;;44.45;;
6372;SDS011;3219;51.362;7.074;2022-12-11T02:07:13;91.22;;;44.22;;
6372;SDS011;3219;51.362;7.074;2022-12-11T02:09:42;95.78;;;45.28;;
6372;SDS011;3219;51.362;7.074;2022-12-11T02:12:12;95.70;;;44.03;;
6372;SDS011;3219;51.362;7.074;2022-12-11T02:17:11;87.30;;;40.35;;
6372;SDS011;3219;51.362;7.074;2022-12-11T02:19:47;88.78;;;43.13;;
6372;SDS011;3219;51.362;7.074;2022-12-11T02:22:18;86.03;;;42.72;;
6372;SDS011;3219;51.362;7.074;2022-12-11T02:24:52;89.40;;;43.25;;
6372;SDS011;3219;51.362;7.074;2022-12-11T02:27:27;90.05;;;44.83;;
6372;SDS011;3219;51.362;7.074;2022-12-11T02:29:57;81.28;;;41.75;;
6372;SDS011;3219;51.362;7.074;2022-12-11T02:32:30;85.13;;;41.70;;
6372;SDS011;3219;51.362;7.074;2022-12-11T02:35:01;90.90;;;43.17;;
6372;SDS011;3219;51.362;7.074;2022-12-11T02:37:31;88.03;;;42.38;;
6372;SDS011;3219;51.362;7.074;2022-12-11T02:40:00;86.63;;;40.97;;
6372;SDS011;3219;51.362;7.074;2022-12-11T02:42:30;96.40;;;46.25;;
6372;SDS011;3219;51.362;7.074;2022-12-11T02:45:01;93.53;;;44.47;;
6372;SDS011;3219;51.362;7.074;2022-12-11T02:47:30;95.15;;;46.00;;
6372;SDS011;3219;51.362;7.074;2022-12-11T02:49:59;95.43;;;45.58;;
6372;SDS011;3219;51.362;7.074;2022-12-11T02:52:28;90.97;;;45.33;;
6372;SDS011;3219;51.362;7.074;2022-12-11T02:54:57;95.13;;;47.15;;
6372;SDS011;3219;51.362;7.074;2022-12-11T02:57:26;89.20;;;43.70;;
6372;SDS011;3219;51.362;7.074;2022-12-11T02:59:56;86.30;;;44.33;;
6372;SDS011;3219;51.362;7.074;2022-12-11T03:02:26;88.95;;;43.97;;
6372;SDS011;3219;51.362;7.074;2022-12-11T03:04:54;96.30;;;45.40;;
6372;SDS011;3219;51.362;7.074;2022-12-11T03:07:23;96.47;;;46.50;;
6372;SDS011;3219;51.362;7.074;2022-12-11T03:09:53;91.03;;;44.97;;
6372;SDS011;3219;51.362;7.074;2022-12-11T03:12:21;93.97;;;45.10;;
6372;SDS011;3219;51.362;7.074;2022-12-11T03:14:50;89.15;;;46.00;;
6372;SDS011;3219;51.362;7.074;2022-12-11T03:17:20;90.15;;;46.33;;
6372;SDS011;3219;51.362;7.074;2022-12-11T03:19:52;94.32;;;44.97;;
6372;SDS011;3219;51.362;7.074;2022-12-11T03:22:24;98.03;;;47.40;;
6372;SDS011;3219;51.362;7.074;2022-12-11T03:24:55;93.53;;;43.70;;
6372;SDS011;3219;51.362;7.074;2022-12-11T03:27:26;89.00;;;41.17;;
6372;SDS011;3219;51.362;7.074;2022-12-11T03:29:55;77.30;;;38.70;;
6372;SDS011;3219;51.362;7.074;2022-12-11T03:32:24;76.90;;;36.50;;
6372;SDS011;3219;51.362;7.074;2022-12-11T03:34:56;80.05;;;35.97;;
6372;SDS011;3219;51.362;7.074;2022-12-11T03:39:57;70.40;;;34.17;;
6372;SDS011;3219;51.362;7.074;2022-12-11T03:42:25;75.07;;;35.63;;
6372;SDS011;3219;51.362;7.074;2022-12-11T03:44:53;74.38;;;35.65;;
6372;SDS011;3219;51.362;7.074;2022-12-11T03:47:23;76.15;;;37.80;;
6372;SDS011;3219;51.362;7.074;2022-12-11T03:49:52;76.68;;;37.80;;
6372;SDS011;3219;51.362;7.074;2022-12-11T03:52:23;76.20;;;37.65;;
6372;SDS011;3219;51.362;7.074;2022-12-11T03:54:52;74.45;;;34.90;;
6372;SDS011;3219;51.362;7.074;2022-12-11T03:57:21;70.88;;;35.90;;
6372;SDS011;3219;51.362;7.074;2022-12-11T03:59:51;73.90;;;38.67;;
6372;SDS011;3219;51.362;7.074;2022-12-11T04:02:19;76.43;;;39.10;;
6372;SDS011;3219;51.362;7.074;2022-12-11T04:04:47;76.82;;;37.95;;
6372;SDS011;3219;51.362;7.074;2022-12-11T04:07:15;80.75;;;39.42;;
6372;SDS011;3219;51.362;7.074;2022-12-11T04:09:45;74.80;;;37.53;;
6372;SDS011;3219;51.362;7.074;2022-12-11T04:12:13;74.28;;;37.10;;
6372;SDS011;3219;51.362;7.074;2022-12-11T04:14:41;76.70;;;39.63;;
6372;SDS011;3219;51.362;7.074;2022-12-11T04:17:27;77.97;;;38.25;;
6372;SDS011;3219;51.362;7.074;2022-12-11T04:20:13;74.35;;;38.67;;
6372;SDS011;3219;51.362;7.074;2022-12-11T04:22:58;72.53;;;36.20;;
6372;SDS011;3219;51.362;7.074;2022-12-11T04:25:48;73.45;;;38.25;;
6372;SDS011;3219;51.362;7.074;2022-12-11T04:28:16;73.32;;;36.65;;
6372;SDS011;3219;51.362;7.074;2022-12-11T04:30:46;67.60;;;35.40;;
6372;SDS011;3219;51.362;7.074;2022-12-11T04:33:15;65.45;;;35.90;;
6372;SDS011;3219;51.362;7.074;2022-12-11T04:35:43;68.32;;;36.03;;
6372;SDS011;3219;51.362;7.074;2022-12-11T04:38:11;67.05;;;35.88;;
6372;SDS011;3219;51.362;7.074;2022-12-11T04:40:39;65.43;;;34.40;;
6372;SDS011;3219;51.362;7.074;2022-12-11T04:43:08;59.95;;;31.58;;
6372;SDS011;3219;51.362;7.074;2022-12-11T04:45:36;53.95;;;29.00;;
6372;SDS011;3219;51.362;7.074;2022-12-11T04:48:05;47.67;;;26.23;;
6372;SDS011;3219;51.362;7.074;2022-12-11T04:50:33;44.67;;;26.05;;
6372;SDS011;3219;51.362;7.074;2022-12-11T04:53:01;44.78;;;25.55;;
6372;SDS011;3219;51.362;7.074;2022-12-11T04:55:29;53.25;;;28.17;;
6372;SDS011;3219;51.362;7.074;2022-12-11T04:57:57;44.35;;;25.35;;
6372;SDS011;3219;51.362;7.074;2022-12-11T05:00:26;47.45;;;25.90;;
6372;SDS011;3219;51.362;7.074;2022-12-11T05:02:54;44.10;;;26.38;;
6372;SDS011;3219;51.362;7.074;2022-12-11T05:05:22;42.38;;;24.98;;
6372;SDS011;3219;51.362;7.074;2022-12-11T05:07:50;48.50;;;26.00;;
6372;SDS011;3219;51.362;7.074;2022-12-11T05:10:18;53.70;;;29.27;;
6372;SDS011;3219;51.362;7.074;2022-12-11T05:12:46;56.40;;;30.98;;
6372;SDS011;3219;51.362;7.074;2022-12-11T05:15:14;54.08;;;29.48;;
6372;SDS011;3219;51.362;7.074;2022-12-11T05:17:44;53.95;;;29.58;;
6372;SDS011;3219;51.362;7.074;2022-12-11T05:20:12;53.65;;;29.00;;
6372;SDS011;3219;51.362;7.074;2022-12-11T05:22:40;49.65;;;28.25;;
6372;SDS011;3219;51.362;7.074;2022-12-11T05:25:08;56.58;;;29.88;;
6372;SDS011;3219;51.362;7.074;2022-12-11T05:27:36;53.05;;;29.60;;
6372;SDS011;3219;51.362;7.074;2022-12-11T05:30:05;58.80;;;30.83;;
6372;SDS011;3219;51.362;7.074;2022-12-11T05:32:34;58.85;;;31.80;;
6372;SDS011;3219;51.362;7.074;2022-12-11T05:35:03;57.60;;;32.58;;
6372;SDS011;3219;51.362;7.074;2022-12-11T05:37:32;57.67;;;33.00;;
6372;SDS011;3219;51.362;7.074;2022-12-11T05:40:00;59.53;;;33.05;;
6372;SDS011;3219;51.362;7.074;2022-12-11T05:42:30;66.45;;;34.85;;
6372;SDS011;3219;51.362;7.074;2022-12-11T05:44:58;64.32;;;34.88;;
6372;SDS011;3219;51.362;7.074;2022-12-11T05:47:26;67.47;;;35.20;;
6372;SDS011;3219;51.362;7.074;2022-12-11T05:49:54;64.03;;;34.83;;
6372;SDS011;3219;51.362;7.074;2022-12-11T05:52:23;69.85;;;35.97;;
6372;SDS011;3219;51.362;7.074;2022-12-11T05:54:52;65.57;;;35.75;;
6372;SDS011;3219;51.362;7.074;2022-12-11T05:57:20;67.75;;;36.92;;
6372;SDS011;3219;51.362;7.074;2022-12-11T05:59:48;69.68;;;37.90;;
6372;SDS011;3219;51.362;7.074;2022-12-11T06:02:17;72.45;;;38.50;;
6372;SDS011;3219;51.362;7.074;2022-12-11T06:04:45;75.93;;;38.67;;
6372;SDS011;3219;51.362;7.074;2022-12-11T06:07:13;69.97;;;36.67;;
6372;SDS011;3219;51.362;7.074;2022-12-11T06:09:43;75.95;;;39.58;;
6372;SDS011;3219;51.362;7.074;2022-12-11T06:12:11;71.28;;;38.45;;
6372;SDS011;3219;51.362;7.074;2022-12-11T06:14:39;69.50;;;38.50;;
6372;SDS011;3219;51.362;7.074;2022-12-11T06:17:07;67.40;;;36.55;;
6372;SDS011;3219;51.362;7.074;2022-12-11T06:19:35;65.40;;;35.80;;
6372;SDS011;3219;51.362;7.074;2022-12-11T06:22:03;70.95;;;36.85;;
6372;SDS011;3219;51.362;7.074;2022-12-11T06:24:31;63.63;;;35.22;;
6372;SDS011;3219;51.362;7.074;2022-12-11T06:27:01;64.30;;;36.33;;
6372;SDS011;3219;51.362;7.074;2022-12-11T06:29:29;62.63;;;35.42;;
6372;SDS011;3219;51.362;7.074;2022-12-11T06:31:57;58.53;;;35.03;;
6372;SDS011;3219;51.362;7.074;2022-12-11T06:34:25;56.13;;;32.80;;
6372;SDS011;3219;51.362;7.074;2022-12-11T06:36:53;59.33;;;34.53;;
6372;SDS011;3219;51.362;7.074;2022-12-11T06:39:21;54.40;;;30.90;;
6372;SDS011;3219;51.362;7.074;2022-12-11T06:41:49;53.22;;;31.73;;
6372;SDS011;3219;51.362;7.074;2022-12-11T06:44:18;53.13;;;31.67;;
6372;SDS011;3219;51.362;7.074;2022-12-11T06:46:46;49.10;;;29.10;;
6372;SDS011;3219;51.362;7.074;2022-12-11T06:49:14;48.28;;;29.00;;
6372;SDS011;3219;51.362;7.074;2022-12-11T06:51:42;46.35;;;27.85;;
6372;SDS011;3219;51.362;7.074;2022-12-11T06:54:10;50.95;;;29.05;;
6372;SDS011;3219;51.362;7.074;2022-12-11T06:56:38;48.45;;;28.35;;
6372;SDS011;3219;51.362;7.074;2022-12-11T06:59:09;47.60;;;28.33;;
6372;SDS011;3219;51.362;7.074;2022-12-11T07:01:39;46.17;;;28.00;;
6372;SDS011;3219;51.362;7.074;2022-12-11T07:04:07;47.47;;;29.73;;
6372;SDS011;3219;51.362;7.074;2022-12-11T07:06:36;49.25;;;28.92;;
6372;SDS011;3219;51.362;7.074;2022-12-11T07:09:04;45.78;;;28.45;;
6372;SDS011;3219;51.362;7.074;2022-12-11T07:11:32;52.20;;;29.33;;
6372;SDS011;3219;51.362;7.074;2022-12-11T07:14:00;46.25;;;27.67;;
6372;SDS011;3219;51.362;7.074;2022-12-11T07:16:28;47.80;;;28.20;;
6372;SDS011;3219;51.362;7.074;2022-12-11T07:18:57;46.42;;;28.45;;
6372;SDS011;3219;51.362;7.074;2022-12-11T07:21:26;43.33;;;27.75;;
6372;SDS011;3219;51.362;7.074;2022-12-11T07:23:54;41.97;;;26.75;;
6372;SDS011;3219;51.362;7.074;2022-12-11T07:26:22;39.25;;;24.80;;
6372;SDS011;3219;51.362;7.074;2022-12-11T07:28:50;41.10;;;26.50;;
6372;SDS011;3219;51.362;7.074;2022-12-11T07:31:18;41.83;;;26.83;;
6372;SDS011;3219;51.362;7.074;2022-12-11T07:33:47;46.95;;;27.38;;
6372;SDS011;3219;51.362;7.074;2022-12-11T07:36:20;42.45;;;26.50;;
6372;SDS011;3219;51.362;7.074;2022-12-11T07:38:48;48.30;;;27.65;;
6372;SDS011;3219;51.362;7.074;2022-12-11T07:41:17;43.45;;;27.77;;
6372;SDS011;3219;51.362;7.074;2022-12-11T07:43:45;45.40;;;27.27;;
6372;SDS011;3219;51.362;7.074;2022-12-11T07:46:13;48.25;;;27.95;;
6372;SDS011;3219;51.362;7.074;2022-12-11T07:48:42;45.65;;;27.05;;
6372;SDS011;3219;51.362;7.074;2022-12-11T07:51:11;45.53;;;28.42;;
6372;SDS011;3219;51.362;7.074;2022-12-11T07:53:41;48.50;;;28.65;;
6372;SDS011;3219;51.362;7.074;2022-12-11T07:56:09;52.13;;;30.55;;
6372;SDS011;3219;51.362;7.074;2022-12-11T07:58:37;52.78;;;29.15;;
6372;SDS011;3219;51.362;7.074;2022-12-11T08:01:09;44.05;;;27.75;;
6372;SDS011;3219;51.362;7.074;2022-12-11T08:03:38;46.50;;;28.25;;
6372;SDS011;3219;51.362;7.074;2022-12-11T08:06:06;52.65;;;29.50;;
6372;SDS011;3219;51.362;7.074;2022-12-11T08:08:34;48.90;;;29.10;;
6372;SDS011;3219;51.362;7.074;2022-12-11T08:11:04;48.47;;;28.40;;
6372;SDS011;3219;51.362;7.074;2022-12-11T08:13:32;47.20;;;29.42;;
6372;SDS011;3219;51.362;7.074;2022-12-11T08:16:01;47.78;;;28.50;;
6372;SDS011;3219;51.362;7.074;2022-12-11T08:18:30;51.33;;;29.58;;
6372;SDS011;3219;51.362;7.074;2022-12-11T08:20:58;49.65;;;29.33;;
6372;SDS011;3219;51.362;7.074;2022-12-11T08:23:26;46.25;;;29.35;;
6372;SDS011;3219;51.362;7.074;2022-12-11T08:25:54;48.17;;;28.70;;
6372;SDS011;3219;51.362;7.074;2022-12-11T08:28:23;52.03;;;31.00;;
6372;SDS011;3219;51.362;7.074;2022-12-11T08:30:51;48.38;;;28.98;;
6372;SDS011;3219;51.362;7.074;2022-12-11T08:33:19;50.15;;;29.67;;
6372;SDS011;3219;51.362;7.074;2022-12-11T08:35:48;51.13;;;31.23;;
6372;SDS011;3219;51.362;7.074;2022-12-11T08:38:15;54.53;;;31.45;;
6372;SDS011;3219;51.362;7.074;2022-12-11T08:40:44;45.65;;;30.10;;
6372;SDS011;3219;51.362;7.074;2022-12-11T08:43:12;49.88;;;29.58;;
6372;SDS011;3219;51.362;7.074;2022-12-11T08:45:41;51.28;;;31.40;;
6372;SDS011;3219;51.362;7.074;2022-12-11T08:48:09;47.55;;;29.08;;
6372;SDS011;3219;51.362;7.074;2022-12-11T08:50:37;45.92;;;29.00;;
6372;SDS011;3219;51.362;7.074;2022-12-11T08:53:05;50.28;;;29.63;;
6372;SDS011;3219;51.362;7.074;2022-12-11T08:55:33;49.78;;;29.35;;
6372;SDS011;3219;51.362;7.074;2022-12-11T08:58:01;52.80;;;30.70;;
6372;SDS011;3219;51.362;7.074;2022-12-11T09:00:29;55.90;;;31.80;;
6372;SDS011;3219;51.362;7.074;2022-12-11T09:02:59;52.28;;;31.13;;
6372;SDS011;3219;51.362;7.074;2022-12-11T09:05:27;52.75;;;31.30;;
6372;SDS011;3219;51.362;7.074;2022-12-11T09:07:56;53.92;;;33.13;;
6372;SDS011;3219;51.362;7.074;2022-12-11T09:10:24;56.28;;;32.70;;
6372;SDS011;3219;51.362;7.074;2022-12-11T09:12:52;53.35;;;32.50;;
6372;SDS011;3219;51.362;7.074;2022-12-11T09:15:20;51.60;;;31.42;;
6372;SDS011;3219;51.362;7.074;2022-12-11T09:17:48;51.95;;;31.40;;
6372;SDS011;3219;51.362;7.074;2022-12-11T09:20:18;60.28;;;33.13;;
6372;SDS011;3219;51.362;7.074;2022-12-11T09:22:46;55.75;;;33.53;;
6372;SDS011;3219;51.362;7.074;2022-12-11T09:25:14;53.42;;;34.08;;
6372;SDS011;3219;51.362;7.074;2022-12-11T09:27:43;55.78;;;32.22;;
6372;SDS011;3219;51.362;7.074;2022-12-11T09:30:11;54.65;;;32.28;;
6372;SDS011;3219;51.362;7.074;2022-12-11T09:32:39;55.90;;;33.67;;
6372;SDS011;3219;51.362;7.074;2022-12-11T09:35:08;56.05;;;32.97;;
6372;SDS011;3219;51.362;7.074;2022-12-11T09:37:37;51.28;;;29.85;;
6372;SDS011;3219;51.362;7.074;2022-12-11T09:40:07;50.47;;;29.30;;
6372;SDS011;3219;51.362;7.074;2022-12-11T09:42:41;50.38;;;30.08;;
6372;SDS011;3219;51.362;7.074;2022-12-11T09:45:12;50.42;;;30.85;;
6372;SDS011;3219;51.362;7.074;2022-12-11T09:47:41;51.75;;;31.90;;
6372;SDS011;3219;51.362;7.074;2022-12-11T09:50:12;52.97;;;30.02;;
6372;SDS011;3219;51.362;7.074;2022-12-11T09:52:46;44.85;;;29.33;;
6372;SDS011;3219;51.362;7.074;2022-12-11T09:55:16;48.15;;;28.58;;
6372;SDS011;3219;51.362;7.074;2022-12-11T09:57:47;39.35;;;26.35;;
6372;SDS011;3219;51.362;7.074;2022-12-11T10:00:22;40.05;;;26.20;;
6372;SDS011;3219;51.362;7.074;2022-12-11T10:03:01;41.10;;;26.10;;
6372;SDS011;3219;51.362;7.074;2022-12-11T10:05:34;42.28;;;27.15;;
6372;SDS011;3219;51.362;7.074;2022-12-11T10:08:07;45.75;;;27.58;;
6372;SDS011;3219;51.362;7.074;2022-12-11T10:10:39;43.42;;;26.17;;
6372;SDS011;3219;51.362;7.074;2022-12-11T10:13:11;39.40;;;24.45;;
6372;SDS011;3219;51.362;7.074;2022-12-11T10:15:46;45.38;;;26.58;;
6372;SDS011;3219;51.362;7.074;2022-12-11T10:18:17;46.17;;;27.52;;
6372;SDS011;3219;51.362;7.074;2022-12-11T10:20:47;43.75;;;26.95;;
6372;SDS011;3219;51.362;7.074;2022-12-11T10:23:19;48.05;;;30.15;;
6372;SDS011;3219;51.362;7.074;2022-12-11T10:25:48;46.28;;;28.77;;
6372;SDS011;3219;51.362;7.074;2022-12-11T10:28:18;47.03;;;30.23;;
6372;SDS011;3219;51.362;7.074;2022-12-11T10:30:47;47.03;;;29.00;;
6372;SDS011;3219;51.362;7.074;2022-12-11T10:33:19;53.92;;;29.88;;
6372;SDS011;3219;51.362;7.074;2022-12-11T10:35:49;47.35;;;28.08;;
6372;SDS011;3219;51.362;7.074;2022-12-11T10:38:21;50.17;;;31.30;;
6372;SDS011;3219;51.362;7.074;2022-12-11T10:40:52;51.20;;;30.88;;
6372;SDS011;3219;51.362;7.074;2022-12-11T10:43:30;48.80;;;30.27;;
6372;SDS011;3219;51.362;7.074;2022-12-11T10:45:59;47.38;;;30.60;;
6372;SDS011;3219;51.362;7.074;2022-12-11T10:48:27;49.92;;;30.92;;
6372;SDS011;3219;51.362;7.074;2022-12-11T10:50:57;46.60;;;29.08;;
6372;SDS011;3219;51.362;7.074;2022-12-11T10:53:27;49.03;;;28.38;;
6372;SDS011;3219;51.362;7.074;2022-12-11T10:55:56;46.17;;;28.33;;
6372;SDS011;3219;51.362;7.074;2022-12-11T10:58:25;50.67;;;29.38;;
6372;SDS011;3219;51.362;7.074;2022-12-11T11:00:59;55.70;;;31.40;;
6372;SDS011;3219;51.362;7.074;2022-12-11T11:03:29;46.67;;;28.45;;
6372;SDS011;3219;51.362;7.074;2022-12-11T11:06:05;51.88;;;30.35;;
6372;SDS011;3219;51.362;7.074;2022-12-11T11:08:39;49.22;;;28.98;;
6372;SDS011;3219;51.362;7.074;2022-12-11T11:11:13;48.72;;;28.67;;
6372;SDS011;3219;51.362;7.074;2022-12-11T11:13:44;45.45;;;28.05;;
6372;SDS011;3219;51.362;7.074;2022-12-11T11:16:12;52.92;;;29.88;;
6372;SDS011;3219;51.362;7.074;2022-12-11T11:18:47;45.58;;;28.80;;
6372;SDS011;3219;51.362;7.074;2022-12-11T11:21:16;51.63;;;30.70;;
6372;SDS011;3219;51.362;7.074;2022-12-11T11:23:46;50.38;;;30.77;;
6372;SDS011;3219;51.362;7.074;2022-12-11T11:26:14;45.90;;;29.65;;
6372;SDS011;3219;51.362;7.074;2022-12-11T11:28:46;46.00;;;29.95;;
6372;SDS011;3219;51.362;7.074;2022-12-11T11:31:15;50.05;;;28.20;;
6372;SDS011;3219;51.362;7.074;2022-12-11T11:33:44;46.50;;;27.10;;
6372;SDS011;3219;51.362;7.074;2022-12-11T11:36:18;45.22;;;27.08;;
6372;SDS011;3219;51.362;7.074;2022-12-11T11:38:47;47.67;;;28.27;;
6372;SDS011;3219;51.362;7.074;2022-12-11T11:41:17;43.85;;;27.27;;
6372;SDS011;3219;51.362;7.074;2022-12-11T11:43:48;46.55;;;28.65;;
6372;SDS011;3219;51.362;7.074;2022-12-11T11:46:19;52.05;;;31.17;;
6372;SDS011;3219;51.362;7.074;2022-12-11T11:48:50;54.77;;;30.43;;
6372;SDS011;3219;51.362;7.074;2022-12-11T11:51:22;54.13;;;29.45;;
6372;SDS011;3219;51.362;7.074;2022-12-11T11:53:53;47.17;;;28.58;;
6372;SDS011;3219;51.362;7.074;2022-12-11T11:56:21;46.90;;;28.08;;
6372;SDS011;3219;51.362;7.074;2022-12-11T11:58:52;47.47;;;30.38;;
6372;SDS011;3219;51.362;7.074;2022-12-11T12:01:20;47.00;;;28.83;;
6372;SDS011;3219;51.362;7.074;2022-12-11T12:03:48;45.95;;;29.10;;
6372;SDS011;3219;51.362;7.074;2022-12-11T12:06:18;45.83;;;28.98;;
6372;SDS011;3219;51.362;7.074;2022-12-11T12:08:49;46.95;;;28.65;;
6372;SDS011;3219;51.362;7.074;2022-12-11T12:11:21;44.72;;;28.75;;
6372;SDS011;3219;51.362;7.074;2022-12-11T12:13:54;43.17;;;28.20;;
6372;SDS011;3219;51.362;7.074;2022-12-11T12:16:27;42.05;;;28.30;;
6372;SDS011;3219;51.362;7.074;2022-12-11T12:18:58;45.25;;;28.08;;
6372;SDS011;3219;51.362;7.074;2022-12-11T12:21:29;44.10;;;27.90;;
6372;SDS011;3219;51.362;7.074;2022-12-11T12:26:30;44.55;;;26.95;;
6372;SDS011;3219;51.362;7.074;2022-12-11T12:29:01;41.38;;;26.80;;
6372;SDS011;3219;51.362;7.074;2022-12-11T12:31:38;41.65;;;26.90;;
6372;SDS011;3219;51.362;7.074;2022-12-11T12:34:09;43.17;;;28.10;;
6372;SDS011;3219;51.362;7.074;2022-12-11T12:36:43;42.42;;;27.95;;
6372;SDS011;3219;51.362;7.074;2022-12-11T12:39:14;41.28;;;26.73;;
6372;SDS011;3219;51.362;7.074;2022-12-11T12:41:48;39.05;;;26.02;;
6372;SDS011;3219;51.362;7.074;2022-12-11T12:44:19;37.75;;;25.45;;
6372;SDS011;3219;51.362;7.074;2022-12-11T12:46:57;35.92;;;23.60;;
6372;SDS011;3219;51.362;7.074;2022-12-11T12:49:37;37.20;;;24.05;;
6372;SDS011;3219;51.362;7.074;2022-12-11T12:52:05;37.88;;;25.60;;
6372;SDS011;3219;51.362;7.074;2022-12-11T12:54:36;35.20;;;21.95;;
6372;SDS011;3219;51.362;7.074;2022-12-11T12:57:05;35.53;;;24.05;;
6372;SDS011;3219;51.362;7.074;2022-12-11T12:59:33;36.10;;;24.10;;
6372;SDS011;3219;51.362;7.074;2022-12-11T13:02:00;38.05;;;24.33;;
6372;SDS011;3219;51.362;7.074;2022-12-11T13:04:35;35.28;;;22.77;;
6372;SDS011;3219;51.362;7.074;2022-12-11T13:07:10;34.72;;;23.83;;
6372;SDS011;3219;51.362;7.074;2022-12-11T13:09:38;32.15;;;22.40;;
6372;SDS011;3219;51.362;7.074;2022-12-11T13:12:12;31.55;;;21.75;;
6372;SDS011;3219;51.362;7.074;2022-12-11T13:14:39;34.67;;;21.73;;
6372;SDS011;3219;51.362;7.074;2022-12-11T13:17:22;35.05;;;23.58;;
6372;SDS011;3219;51.362;7.074;2022-12-11T13:19:49;36.47;;;22.75;;
6372;SDS011;3219;51.362;7.074;2022-12-11T13:22:22;38.85;;;24.95;;
6372;SDS011;3219;51.362;7.074;2022-12-11T13:24:56;40.00;;;25.23;;
6372;SDS011;3219;51.362;7.074;2022-12-11T13:27:35;39.40;;;25.00;;
6372;SDS011;3219;51.362;7.074;2022-12-11T13:30:04;38.95;;;24.88;;
6372;SDS011;3219;51.362;7.074;2022-12-11T13:32:31;36.42;;;23.52;;
6372;SDS011;3219;51.362;7.074;2022-12-11T13:34:59;36.42;;;23.38;;
6372;SDS011;3219;51.362;7.074;2022-12-11T13:37:31;35.78;;;23.73;;
6372;SDS011;3219;51.362;7.074;2022-12-11T13:39:58;37.03;;;22.80;;
6372;SDS011;3219;51.362;7.074;2022-12-11T13:42:28;34.15;;;22.17;;
6372;SDS011;3219;51.362;7.074;2022-12-11T13:44:57;37.25;;;23.88;;
6372;SDS011;3219;51.362;7.074;2022-12-11T13:47:25;37.05;;;22.85;;
6372;SDS011;3219;51.362;7.074;2022-12-11T13:49:52;35.42;;;23.05;;
6372;SDS011;3219;51.362;7.074;2022-12-11T13:52:22;34.88;;;22.58;;
6372;SDS011;3219;51.362;7.074;2022-12-11T13:54:52;37.77;;;24.60;;
6372;SDS011;3219;51.362;7.074;2022-12-11T13:57:23;35.88;;;22.50;;
6372;SDS011;3219;51.362;7.074;2022-12-11T13:59:54;40.78;;;23.80;;
6372;SDS011;3219;51.362;7.074;2022-12-11T14:02:24;34.60;;;23.57;;
6372;SDS011;3219;51.362;7.074;2022-12-11T14:04:54;39.28;;;24.58;;
6372;SDS011;3219;51.362;7.074;2022-12-11T14:07:23;37.50;;;24.27;;
6372;SDS011;3219;51.362;7.074;2022-12-11T14:09:51;39.10;;;25.05;;
6372;SDS011;3219;51.362;7.074;2022-12-11T14:12:21;34.78;;;22.60;;
6372;SDS011;3219;51.362;7.074;2022-12-11T14:14:49;35.58;;;22.98;;
6372;SDS011;3219;51.362;7.074;2022-12-11T14:17:21;37.42;;;24.27;;
6372;SDS011;3219;51.362;7.074;2022-12-11T14:19:49;38.15;;;23.58;;
6372;SDS011;3219;51.362;7.074;2022-12-11T14:22:17;39.08;;;23.80;;
6372;SDS011;3219;51.362;7.074;2022-12-11T14:24:47;37.38;;;24.25;;
6372;SDS011;3219;51.362;7.074;2022-12-11T14:27:15;34.78;;;23.20;;
6372;SDS011;3219;51.362;7.074;2022-12-11T14:29:42;34.58;;;24.73;;
6372;SDS011;3219;51.362;7.074;2022-12-11T14:32:12;38.65;;;24.25;;
6372;SDS011;3219;51.362;7.074;2022-12-11T14:34:45;35.92;;;22.40;;
6372;SDS011;3219;51.362;7.074;2022-12-11T14:37:13;37.83;;;23.45;;
6372;SDS011;3219;51.362;7.074;2022-12-11T14:39:43;36.17;;;22.67;;
6372;SDS011;3219;51.362;7.074;2022-12-11T14:42:11;33.03;;;21.85;;
6372;SDS011;3219;51.362;7.074;2022-12-11T14:44:43;32.88;;;20.67;;
6372;SDS011;3219;51.362;7.074;2022-12-11T14:47:11;33.40;;;21.35;;
6372;SDS011;3219;51.362;7.074;2022-12-11T14:49:41;29.17;;;19.73;;
6372;SDS011;3219;51.362;7.074;2022-12-11T14:52:14;33.92;;;21.92;;
6372;SDS011;3219;51.362;7.074;2022-12-11T14:54:44;30.33;;;20.27;;
6372;SDS011;3219;51.362;7.074;2022-12-11T14:57:16;34.30;;;20.90;;
6372;SDS011;3219;51.362;7.074;2022-12-11T14:59:45;31.17;;;20.58;;
6372;SDS011;3219;51.362;7.074;2022-12-11T15:02:23;34.58;;;20.48;;
6372;SDS011;3219;51.362;7.074;2022-12-11T15:05:00;33.95;;;22.00;;
6372;SDS011;3219;51.362;7.074;2022-12-11T15:07:30;31.75;;;21.85;;
6372;SDS011;3219;51.362;7.074;2022-12-11T15:09:58;28.58;;;20.85;;
6372;SDS011;3219;51.362;7.074;2022-12-11T15:12:26;35.25;;;23.45;;